createdAt,value
2022-11-29T00:01:38.568Z,4.05
2022-11-29T00:04:05.721Z,3.78
2022-11-29T00:06:35.215Z,4.30
2022-11-29T00:09:06.563Z,4.10
2022-11-29T00:11:55.193Z,4.70
2022-11-29T00:14:23.248Z,3.85
2022-11-29T00:16:53.274Z,4.07
2022-11-29T00:19:20.675Z,4.70
2022-11-29T00:21:48.019Z,3.90
2022-11-29T00:24:15.849Z,4.30
2022-11-29T00:26:43.055Z,4.68
2022-11-29T00:29:12.277Z,4.45
2022-11-29T00:31:40.179Z,3.63
2022-11-29T00:34:08.114Z,5.38
2022-11-29T00:36:35.670Z,5.57
2022-11-29T00:39:04.747Z,4.72
2022-11-29T00:41:32.838Z,5.25
2022-11-29T00:43:59.927Z,5.35
2022-11-29T00:46:27.034Z,4.88
2022-11-29T00:48:54.237Z,4.90
2022-11-29T00:51:21.954Z,6.20
2022-11-29T00:53:48.940Z,5.20
2022-11-29T00:56:16.387Z,5.15
2022-11-29T00:58:46.097Z,3.85
2022-11-29T01:01:13.227Z,5.10
2022-11-29T01:03:40.578Z,4.80
2022-11-29T01:06:13.997Z,5.60
2022-11-29T01:08:41.839Z,5.78
2022-11-29T01:11:20.523Z,5.47
2022-11-29T01:13:49.077Z,5.40
2022-11-29T01:16:18.277Z,5.20
2022-11-29T01:18:45.533Z,4.28
2022-11-29T01:21:18.534Z,5.20
2022-11-29T01:23:46.706Z,5.55
2022-11-29T01:26:16.219Z,5.00
2022-11-29T01:28:47.352Z,5.13
2022-11-29T01:31:21.019Z,4.57
2022-11-29T01:33:48.140Z,4.80
2022-11-29T01:36:15.648Z,4.38
2022-11-29T01:38:43.183Z,4.05
2022-11-29T01:41:18.704Z,4.85
2022-11-29T01:44:16.305Z,3.70
2022-11-29T01:46:46.226Z,5.05
2022-11-29T01:49:17.772Z,5.70
2022-11-29T01:51:50.514Z,5.78
2022-11-29T01:54:18.399Z,5.53
2022-11-29T01:56:47.142Z,5.90
2022-11-29T01:59:17.423Z,5.65
2022-11-29T02:01:44.447Z,6.13
2022-11-29T02:04:12.283Z,5.72
2022-11-29T02:06:41.069Z,4.80
2022-11-29T02:09:20.591Z,6.93
2022-11-29T02:12:06.988Z,5.70
2022-11-29T02:14:51.848Z,6.15
2022-11-29T02:17:49.813Z,5.05
2022-11-29T02:20:16.751Z,5.57
2022-11-29T02:23:28.591Z,5.25
2022-11-29T02:26:22.881Z,5.72
2022-11-29T02:29:17.670Z,5.15
2022-11-29T02:32:02.959Z,5.47
2022-11-29T02:34:29.999Z,5.80
2022-11-29T02:37:18.552Z,4.95
2022-11-29T02:40:15.043Z,6.35
2022-11-29T02:42:56.276Z,6.82
2022-11-29T02:45:41.451Z,6.22
2022-11-29T02:48:29.832Z,6.15
2022-11-29T02:51:11.801Z,6.32
2022-11-29T02:53:57.283Z,6.70
2022-11-29T02:57:01.395Z,6.40
2022-11-29T02:59:43.248Z,7.00
2022-11-29T03:02:25.504Z,5.18
2022-11-29T03:05:20.080Z,6.32
2022-11-29T03:08:24.911Z,7.28
2022-11-29T03:11:18.804Z,6.90
2022-11-29T03:13:48.735Z,5.63
2022-11-29T03:16:44.593Z,6.38
2022-11-29T03:19:17.543Z,6.35
2022-11-29T03:21:57.093Z,6.80
2022-11-29T03:24:36.013Z,5.65
2022-11-29T03:27:09.526Z,6.63
2022-11-29T03:29:43.559Z,5.70
2022-11-29T03:32:20.738Z,6.68
2022-11-29T03:34:57.159Z,7.25
2022-11-29T03:37:46.437Z,6.43
2022-11-29T03:40:19.020Z,6.43
2022-11-29T03:43:00.973Z,6.93
2022-11-29T03:45:45.704Z,6.47
2022-11-29T03:48:33.250Z,6.25
2022-11-29T03:51:03.301Z,5.75
2022-11-29T03:54:00.198Z,6.00
2022-11-29T03:56:34.083Z,6.68
2022-11-29T03:59:10.249Z,6.35
2022-11-29T04:02:04.070Z,6.40
2022-11-29T04:04:43.430Z,6.00
2022-11-29T04:07:48.234Z,6.78
2022-11-29T04:13:19.434Z,5.43
2022-11-29T04:15:46.475Z,5.30
2022-11-29T04:18:35.064Z,6.07
2022-11-29T04:21:10.931Z,5.88
2022-11-29T04:23:59.049Z,5.60
2022-11-29T04:27:24.965Z,6.22
2022-11-29T04:30:10.891Z,5.38
2022-11-29T04:33:15.531Z,5.95
2022-11-29T04:38:48.004Z,5.38
2022-11-29T04:41:46.529Z,5.47
2022-11-29T04:44:22.616Z,5.97
2022-11-29T04:47:26.642Z,7.55
2022-11-29T04:50:05.652Z,6.32
2022-11-29T04:52:59.882Z,7.38
2022-11-29T04:55:35.786Z,7.30
2022-11-29T04:58:35.924Z,6.82
2022-11-29T05:01:12.565Z,6.65
2022-11-29T05:03:53.851Z,7.22
2022-11-29T05:06:45.546Z,7.57
2022-11-29T05:09:28.049Z,6.95
2022-11-29T05:12:09.119Z,8.05
2022-11-29T05:15:05.267Z,6.30
2022-11-29T05:18:07.506Z,6.28
2022-11-29T05:21:00.843Z,7.03
2022-11-29T05:23:47.165Z,6.67
2022-11-29T05:26:26.369Z,6.80
2022-11-29T05:28:59.447Z,6.80
2022-11-29T05:31:26.586Z,5.80
2022-11-29T05:34:12.626Z,7.15
2022-11-29T05:37:43.317Z,6.40
2022-11-29T05:40:41.560Z,6.47
2022-11-29T05:43:41.918Z,8.23
2022-11-29T05:46:34.344Z,8.02
2022-11-29T05:49:27.627Z,7.20
2022-11-29T05:52:12.950Z,5.80
2022-11-29T05:54:53.375Z,8.02
2022-11-29T05:57:37.354Z,8.45
2022-11-29T06:03:07.603Z,6.00
2022-11-29T06:05:40.426Z,6.88
2022-11-29T06:08:46.291Z,6.85
2022-11-29T06:11:24.284Z,7.45
2022-11-29T06:14:14.659Z,7.13
2022-11-29T06:16:51.367Z,7.55
2022-11-29T06:19:37.945Z,7.47
2022-11-29T06:22:08.229Z,7.28
2022-11-29T06:24:45.644Z,7.15
2022-11-29T06:27:48.368Z,7.43
2022-11-29T06:30:20.869Z,6.90
2022-11-29T06:32:54.514Z,7.55
2022-11-29T06:36:09.410Z,6.85
2022-11-29T06:41:03.596Z,6.05
2022-11-29T06:43:31.506Z,7.72
2022-11-29T06:46:14.327Z,7.15
2022-11-29T06:49:26.808Z,6.50
2022-11-29T06:52:02.990Z,7.35
2022-11-29T06:54:55.759Z,8.18
2022-11-29T06:57:49.037Z,7.90
2022-11-29T07:00:22.671Z,6.30
2022-11-29T07:03:23.680Z,8.40
2022-11-29T07:05:51.335Z,7.75
2022-11-29T07:08:24.090Z,8.75
2022-11-29T07:10:54.198Z,8.02
2022-11-29T07:13:22.732Z,8.88
2022-11-29T07:16:12.697Z,8.55
2022-11-29T07:19:03.981Z,8.10
2022-11-29T07:21:46.274Z,8.73
2022-11-29T07:24:26.426Z,6.80
2022-11-29T07:27:11.999Z,9.05
2022-11-29T07:29:46.032Z,8.95
2022-11-29T07:32:39.304Z,8.40
2022-11-29T07:35:16.548Z,7.90
2022-11-29T07:38:01.943Z,8.98
2022-11-29T07:40:45.907Z,7.72
2022-11-29T07:43:44.820Z,9.40
2022-11-29T07:46:12.268Z,8.35
2022-11-29T07:48:40.599Z,8.55
2022-11-29T07:51:07.840Z,9.20
2022-11-29T07:53:41.348Z,8.05
2022-11-29T07:56:16.525Z,8.43
2022-11-29T07:58:44.023Z,8.77
2022-11-29T08:01:11.542Z,8.85
2022-11-29T08:03:39.000Z,7.93
2022-11-29T08:06:06.484Z,7.22
2022-11-29T08:08:36.652Z,7.88
2022-11-29T08:11:11.850Z,8.75
2022-11-29T08:13:38.884Z,8.68
2022-11-29T08:16:06.115Z,8.55
2022-11-29T08:18:39.628Z,7.15
2022-11-29T08:21:09.335Z,7.38
2022-11-29T08:23:36.590Z,7.65
2022-11-29T08:26:04.208Z,7.93
2022-11-29T08:28:31.898Z,6.35
2022-11-29T08:31:07.363Z,7.70
2022-11-29T08:33:44.821Z,6.85
2022-11-29T08:36:18.469Z,8.85
2022-11-29T08:41:17.432Z,5.97
2022-11-29T08:43:45.001Z,6.57
2022-11-29T08:46:18.309Z,6.65
2022-11-29T08:48:47.239Z,6.72
2022-11-29T08:51:14.545Z,6.22
2022-11-29T08:53:41.889Z,6.35
2022-11-29T08:59:06.120Z,6.28
2022-11-29T09:01:33.589Z,7.15
2022-11-29T09:04:02.552Z,7.40
2022-11-29T09:06:38.131Z,8.95
2022-11-29T09:09:06.338Z,6.60
2022-11-29T09:11:36.104Z,6.90
2022-11-29T09:14:06.301Z,6.95
2022-11-29T09:16:36.436Z,8.23
2022-11-29T09:19:05.558Z,8.20
2022-11-29T09:21:36.774Z,7.20
2022-11-29T09:24:07.368Z,6.82
2022-11-29T09:26:38.359Z,6.70
2022-11-29T09:29:07.011Z,7.55
2022-11-29T09:31:38.224Z,7.78
2022-11-29T09:34:07.861Z,7.80
2022-11-29T09:36:35.430Z,8.13
2022-11-29T09:39:03.060Z,6.45
2022-11-29T09:42:03.965Z,7.07
2022-11-29T09:45:09.723Z,6.82
2022-11-29T09:47:52.026Z,7.45
2022-11-29T09:50:26.671Z,6.57
2022-11-29T09:53:04.759Z,7.45
2022-11-29T09:55:48.617Z,6.90
2022-11-29T09:58:23.015Z,6.50
2022-11-29T10:01:00.297Z,6.60
2022-11-29T10:03:38.329Z,7.47
2022-11-29T10:06:11.945Z,6.88
2022-11-29T10:08:54.195Z,6.95
2022-11-29T10:11:32.019Z,6.60
2022-11-29T10:14:35.697Z,6.05
2022-11-29T10:17:34.544Z,7.50
2022-11-29T10:20:10.382Z,7.03
2022-11-29T10:23:14.206Z,7.07
2022-11-29T10:25:49.456Z,7.53
2022-11-29T10:28:29.399Z,7.10
2022-11-29T10:31:10.973Z,7.43
2022-11-29T10:33:41.635Z,7.28
2022-11-29T10:36:34.182Z,7.03
2022-11-29T10:39:10.045Z,7.30
2022-11-29T10:41:42.695Z,8.13
2022-11-29T10:44:14.858Z,8.05
2022-11-29T10:46:42.202Z,7.05
2022-11-29T10:49:23.888Z,7.00
2022-11-29T10:51:56.895Z,7.18
2022-11-29T10:54:38.677Z,7.55
2022-11-29T10:57:14.723Z,7.82
2022-11-29T11:00:04.745Z,7.88
2022-11-29T11:02:34.521Z,8.55
2022-11-29T11:05:03.131Z,7.72
2022-11-29T11:07:38.378Z,8.07
2022-11-29T11:10:26.810Z,7.45
2022-11-29T11:13:20.368Z,7.63
2022-11-29T11:15:47.416Z,7.67
2022-11-29T11:18:23.482Z,7.50
2022-11-29T11:21:00.195Z,7.28
2022-11-29T11:23:31.856Z,8.45
2022-11-29T11:26:03.198Z,7.88
2022-11-29T11:28:30.412Z,8.30
2022-11-29T11:31:05.775Z,8.75
2022-11-29T11:33:35.001Z,9.57
2022-11-29T11:36:02.315Z,8.60
2022-11-29T11:38:29.827Z,8.55
2022-11-29T11:41:17.406Z,8.85
2022-11-29T11:44:48.851Z,9.40
2022-11-29T11:47:29.480Z,9.15
2022-11-29T11:50:02.771Z,8.50
2022-11-29T11:52:53.491Z,8.48
2022-11-29T11:55:32.673Z,7.50
2022-11-29T11:58:13.640Z,9.43
2022-11-29T12:01:04.014Z,9.57
2022-11-29T12:03:39.743Z,9.25
2022-11-29T12:06:39.510Z,9.57
2022-11-29T12:09:10.031Z,9.85
2022-11-29T12:12:10.229Z,8.95
2022-11-29T12:14:42.297Z,7.82
2022-11-29T12:17:19.914Z,8.77
2022-11-29T12:20:07.602Z,9.32
2022-11-29T12:22:49.657Z,9.52
2022-11-29T12:25:27.363Z,10.88
2022-11-29T12:27:54.919Z,9.40
2022-11-29T12:30:22.731Z,11.43
2022-11-29T12:33:09.129Z,7.90
2022-11-29T12:35:58.710Z,9.75
2022-11-29T12:38:38.773Z,8.70
2022-11-29T12:41:39.546Z,9.25
2022-11-29T12:44:22.962Z,8.55
2022-11-29T12:47:35.317Z,7.32
2022-11-29T12:50:20.806Z,8.35
2022-11-29T12:52:55.798Z,9.23
2022-11-29T12:55:48.286Z,9.52
2022-11-29T12:58:46.075Z,8.93
2022-11-29T13:01:16.287Z,11.25
2022-11-29T13:04:08.159Z,9.15
2022-11-29T13:07:06.198Z,9.90
2022-11-29T13:10:18.236Z,8.75
2022-11-29T13:12:57.599Z,9.40
2022-11-29T13:15:43.103Z,9.38
2022-11-29T13:18:32.777Z,10.05
2022-11-29T13:21:25.357Z,10.00
2022-11-29T13:24:09.884Z,10.45
2022-11-29T13:26:40.949Z,9.88
2022-11-29T13:29:18.371Z,10.80
2022-11-29T13:31:50.507Z,11.00
2022-11-29T13:34:36.649Z,10.15
2022-11-29T13:37:25.108Z,9.52
2022-11-29T13:40:10.454Z,9.65
2022-11-29T13:42:47.458Z,10.27
2022-11-29T13:45:39.601Z,9.77
2022-11-29T13:48:37.316Z,8.80
2022-11-29T13:51:35.587Z,9.32
2022-11-29T13:54:26.521Z,8.20
2022-11-29T13:57:07.187Z,10.25
2022-11-29T13:59:47.271Z,9.52
2022-11-29T14:02:30.524Z,9.50
2022-11-29T14:04:57.899Z,8.57
2022-11-29T14:07:26.763Z,10.00
2022-11-29T14:10:29.071Z,9.45
2022-11-29T14:12:57.650Z,9.35
2022-11-29T14:15:29.061Z,8.38
2022-11-29T14:18:07.931Z,9.70
2022-11-29T14:21:00.413Z,9.43
2022-11-29T14:23:43.786Z,9.40
2022-11-29T14:26:11.041Z,7.50
2022-11-29T14:28:40.698Z,9.35
2022-11-29T14:31:09.938Z,9.48
2022-11-29T14:33:40.229Z,9.23
2022-11-29T14:36:31.753Z,8.70
2022-11-29T14:39:29.726Z,8.13
2022-11-29T14:42:19.057Z,8.52
2022-11-29T14:44:52.330Z,8.65
2022-11-29T14:47:49.182Z,8.70
2022-11-29T14:50:32.246Z,9.32
2022-11-29T14:52:59.836Z,8.35
2022-11-29T14:55:26.814Z,8.18
2022-11-29T14:58:06.418Z,8.85
2022-11-29T15:00:40.911Z,8.60
2022-11-29T15:03:10.869Z,8.07
2022-11-29T15:05:58.014Z,7.90
2022-11-29T15:08:54.413Z,9.85
2022-11-29T15:11:35.573Z,8.13
2022-11-29T15:14:06.724Z,9.70
2022-11-29T15:16:56.972Z,9.18
2022-11-29T15:19:42.112Z,9.98
2022-11-29T15:22:20.046Z,8.45
2022-11-29T15:25:03.026Z,8.57
2022-11-29T15:27:37.381Z,9.50
2022-11-29T15:30:32.482Z,8.95
2022-11-29T15:33:02.007Z,9.48
2022-11-29T15:35:30.211Z,8.52
2022-11-29T15:37:57.726Z,8.32
2022-11-29T15:40:39.846Z,10.20
2022-11-29T15:43:38.055Z,9.82
2022-11-29T15:46:05.365Z,9.38
2022-11-29T15:48:32.981Z,9.73
2022-11-29T15:51:03.306Z,8.95
2022-11-29T15:53:42.765Z,9.10
2022-11-29T15:56:25.584Z,8.07
2022-11-29T15:59:01.278Z,10.45
2022-11-29T16:01:30.327Z,10.20
2022-11-29T16:03:59.530Z,9.85
2022-11-29T16:06:42.775Z,9.35
2022-11-29T16:09:16.327Z,12.43
2022-11-29T16:14:27.029Z,9.30
2022-11-29T16:16:57.145Z,10.65
2022-11-29T16:19:38.158Z,9.55
2022-11-29T16:22:24.069Z,9.38
2022-11-29T16:24:54.723Z,9.85
2022-11-29T16:27:23.031Z,9.90
2022-11-29T16:29:57.130Z,9.40
2022-11-29T16:32:34.732Z,9.73
2022-11-29T16:35:16.806Z,9.13
2022-11-29T16:37:46.762Z,10.18
2022-11-29T16:40:26.918Z,11.07
2022-11-29T16:43:09.532Z,9.63
2022-11-29T16:45:41.607Z,10.68
2022-11-29T16:48:27.110Z,9.50
2022-11-29T16:51:17.203Z,10.63
2022-11-29T16:53:49.893Z,10.25
2022-11-29T16:56:19.460Z,10.75
2022-11-29T16:59:25.826Z,10.35
2022-11-29T17:01:37.608Z,13.30
2022-11-29T17:04:09.015Z,11.10
2022-11-29T17:06:37.405Z,10.60
2022-11-29T17:12:22.613Z,10.75
2022-11-29T17:14:50.613Z,12.23
2022-11-29T17:17:19.675Z,11.63
2022-11-29T17:19:50.474Z,9.50
2022-11-29T17:22:17.662Z,9.85
2022-11-29T17:25:10.862Z,11.10
2022-11-29T17:28:04.891Z,11.73
2022-11-29T17:30:33.504Z,11.55
2022-11-29T17:33:00.515Z,11.93
2022-11-29T17:35:39.010Z,11.05
2022-11-29T17:38:10.973Z,10.15
2022-11-29T17:43:38.459Z,11.32
2022-11-29T17:46:16.476Z,11.73
2022-11-29T17:48:48.824Z,12.88
2022-11-29T17:51:50.033Z,12.15
2022-11-29T17:54:10.600Z,11.10
2022-11-29T17:56:38.536Z,10.85
2022-11-29T17:59:07.009Z,11.57
2022-11-29T18:02:02.234Z,11.02
2022-11-29T18:04:31.923Z,10.38
2022-11-29T18:13:08.307Z,9.15
2022-11-29T18:16:13.070Z,10.98
2022-11-29T18:18:44.316Z,10.60
2022-11-29T18:21:15.592Z,11.23
2022-11-29T18:23:43.444Z,9.80
2022-11-29T18:26:20.209Z,9.85
2022-11-29T18:32:03.982Z,10.13
2022-11-29T18:34:31.026Z,9.00
2022-11-29T18:39:57.280Z,6.82
2022-11-29T18:42:51.117Z,9.90
2022-11-29T18:45:44.246Z,9.73
2022-11-29T18:48:12.072Z,8.70
2022-11-29T18:50:39.933Z,9.57
2022-11-29T18:53:07.040Z,8.35
2022-11-29T18:55:38.099Z,8.95
2022-11-29T18:58:31.054Z,8.65
2022-11-29T19:01:48.954Z,9.20
2022-11-29T19:04:33.118Z,7.78
2022-11-29T19:07:01.006Z,8.45
2022-11-29T19:09:30.335Z,9.52
2022-11-29T19:12:00.049Z,7.45
2022-11-29T19:14:32.608Z,8.25
2022-11-29T19:17:00.274Z,8.90
2022-11-29T19:19:52.594Z,9.35
2022-11-29T19:22:22.838Z,7.55
2022-11-29T19:25:17.006Z,9.13
2022-11-29T19:27:52.300Z,9.63
2022-11-29T19:30:44.734Z,9.30
2022-11-29T19:33:41.987Z,9.60
2022-11-29T19:36:23.637Z,8.65
2022-11-29T19:39:17.951Z,8.75
2022-11-29T19:41:50.030Z,9.80
2022-11-29T19:45:15.329Z,9.27
2022-11-29T19:47:35.295Z,8.98
2022-11-29T19:50:53.270Z,9.50
2022-11-29T19:53:27.944Z,9.38
2022-11-29T19:56:20.957Z,7.93
2022-11-29T19:59:13.284Z,8.10
2022-11-29T20:01:42.250Z,8.80
2022-11-29T20:04:13.234Z,9.82
2022-11-29T20:09:57.542Z,8.13
2022-11-29T20:12:24.870Z,9.30
2022-11-29T20:15:17.045Z,8.07
2022-11-29T20:17:44.120Z,8.63
2022-11-29T20:20:11.920Z,8.57
2022-11-29T20:22:39.741Z,8.13
2022-11-29T20:25:07.291Z,8.23
2022-11-29T20:27:34.523Z,7.93
2022-11-29T20:30:02.006Z,8.93
2022-11-29T20:32:31.931Z,8.05
2022-11-29T20:35:00.565Z,9.57
2022-11-29T20:37:37.442Z,8.90
2022-11-29T20:40:12.100Z,8.10
2022-11-29T20:42:53.867Z,9.13
2022-11-29T20:45:22.553Z,7.95
2022-11-29T20:47:56.697Z,8.15
2022-11-29T20:50:27.177Z,8.00
2022-11-29T20:53:14.648Z,9.95
2022-11-29T20:55:47.701Z,6.82
2022-11-29T20:58:16.300Z,8.48
2022-11-29T21:00:43.396Z,8.02
2022-11-29T21:03:36.221Z,8.48
2022-11-29T21:06:05.709Z,7.95
2022-11-29T21:08:33.620Z,7.32
2022-11-29T21:11:06.787Z,8.40
2022-11-29T21:13:35.550Z,7.45
2022-11-29T21:16:03.463Z,7.85
2022-11-29T21:18:31.630Z,8.77
2022-11-29T21:21:10.294Z,7.30
2022-11-29T21:24:09.549Z,7.18
2022-11-29T21:26:42.540Z,8.32
2022-11-29T21:29:17.079Z,7.35
2022-11-29T21:31:45.501Z,7.93
2022-11-29T21:34:12.617Z,7.05
2022-11-29T21:36:40.157Z,7.57
2022-11-29T21:39:08.817Z,7.05
2022-11-29T21:41:36.391Z,7.32
2022-11-29T21:44:07.724Z,7.88
2022-11-29T21:46:35.493Z,7.70
2022-11-29T21:49:02.519Z,7.40
2022-11-29T21:51:29.604Z,7.50
2022-11-29T21:53:56.907Z,7.55
2022-11-29T21:56:24.156Z,7.07
2022-11-29T21:58:51.099Z,7.60
2022-11-29T22:01:20.409Z,6.75
2022-11-29T22:03:48.011Z,7.43
2022-11-29T22:06:20.587Z,7.97
2022-11-29T22:08:48.502Z,8.75
2022-11-29T22:11:31.261Z,7.20
2022-11-29T22:14:15.885Z,6.70
2022-11-29T22:16:46.724Z,7.78
2022-11-29T22:19:16.451Z,7.15
2022-11-29T22:21:46.160Z,6.32
2022-11-29T22:24:14.857Z,7.50
2022-11-29T22:26:43.855Z,7.00
2022-11-29T22:29:14.155Z,6.90
2022-11-29T22:31:46.503Z,7.72
2022-11-29T22:34:13.836Z,7.90
2022-11-29T22:36:41.075Z,7.57
2022-11-29T22:39:09.330Z,7.75
2022-11-29T22:41:37.953Z,9.23
2022-11-29T22:44:06.050Z,7.95
2022-11-29T22:46:35.537Z,7.25
2022-11-29T22:49:03.266Z,7.82
2022-11-29T22:51:36.054Z,6.22
2022-11-29T22:54:10.588Z,7.22
2022-11-29T22:56:40.646Z,8.88
2022-11-29T22:59:08.239Z,8.68
2022-11-29T23:01:37.741Z,7.47
2022-11-29T23:04:07.329Z,8.13
2022-11-29T23:06:35.691Z,8.40
2022-11-29T23:09:10.811Z,8.52
2022-11-29T23:11:38.768Z,8.75
2022-11-29T23:14:05.761Z,7.90
2022-11-29T23:16:33.629Z,7.90
2022-11-29T23:19:02.822Z,7.53
2022-11-29T23:21:32.192Z,8.43
2022-11-29T23:24:01.077Z,7.50
2022-11-29T23:26:36.506Z,8.32
2022-11-29T23:29:05.416Z,8.10
2022-11-29T23:31:33.018Z,7.93
2022-11-29T23:34:00.510Z,8.10
2022-11-29T23:36:27.529Z,8.10
2022-11-29T23:38:54.589Z,7.80
2022-11-29T23:41:21.711Z,8.32
2022-11-29T23:43:48.638Z,6.60
2022-11-29T23:46:18.603Z,8.00
2022-11-29T23:48:46.079Z,8.25
2022-11-29T23:51:14.009Z,6.97
2022-11-29T23:53:42.065Z,8.07
2022-11-29T23:56:13.416Z,8.30
2022-11-29T23:58:40.994Z,7.68
